Time;durP1;ratioP1;P1;durP2;ratioP2;P2;SDS_P1;SDS_P2;PMS_P1;PMS_P2;Temp;Humidity;BMP_temperature;BMP_pressure;BME280_temperature;BME280_humidity;BME280_pressure;Samples;Min_cycle;Max_cycle;Signal;HPM_P1;HPM_P2
2022/06/14 00:03:45;;;;;;;2.93;2.67;;;14.40;1.00;;;;;;6335778;28;20565;-55
2022/06/14 00:06:48;;;;;;;2.93;2.70;;;14.30;1.00;;;;;;6331292;28;20573;-58
2022/06/14 00:09:51;;;;;;;2.93;2.60;;;14.20;1.00;;;;;;6325542;27;20318;-56
2022/06/14 00:12:55;;;;;;;3.00;2.60;;;14.20;1.00;;;;;;6341660;28;20247;-55
2022/06/14 00:15:57;;;;;;;3.20;2.53;;;14.20;1.00;;;;;;6338134;28;20228;-55
2022/06/14 00:19:04;;;;;;;2.93;2.50;;;14.10;1.00;;;;;;6337354;27;20322;-56
2022/06/14 00:22:08;;;;;;;3.90;2.53;;;14.00;1.00;;;;;;6337711;27;20247;-56
2022/06/14 00:25:24;;;;;;;3.37;2.63;;;14.00;1.00;;;;;;6337098;28;20232;-56
2022/06/14 00:28:29;;;;;;;2.97;2.50;;;13.90;1.00;;;;;;6335484;28;20616;-55
2022/06/14 00:31:32;;;;;;;5.67;2.70;;;13.90;1.00;;;;;;6338613;28;20609;-56
2022/06/14 00:34:37;;;;;;;2.97;2.77;;;13.90;1.00;;;;;;6334735;28;20232;-56
2022/06/14 00:37:46;;;;;;;2.57;2.40;;;13.80;1.00;;;;;;6334324;28;20599;-56
2022/06/14 00:40:52;;;;;;;3.50;2.53;;;13.80;1.00;;;;;;6324712;28;20301;-56
2022/06/14 00:43:55;;;;;;;2.70;2.50;;;13.80;1.00;;;;;;6335595;28;20259;-56
2022/06/14 00:47:02;;;;;;;3.90;2.60;;;13.70;1.00;;;;;;6328250;28;20619;-54
2022/06/14 00:50:15;;;;;;;3.80;2.67;;;13.60;1.00;;;;;;6322582;28;20390;-55
2022/06/14 00:53:24;;;;;;;3.57;2.30;;;13.60;1.00;;;;;;6335241;28;20366;-56
2022/06/14 00:56:32;;;;;;;4.50;2.63;;;13.50;1.00;;;;;;6334910;28;20251;-54
2022/06/14 00:59:39;;;;;;;3.40;2.97;;;13.50;1.00;;;;;;6323973;28;20236;-55
2022/06/14 01:02:45;;;;;;;2.50;2.40;;;13.40;1.00;;;;;;6326677;28;20370;-56
2022/06/14 01:06:07;;;;;;;3.67;2.53;;;13.40;1.00;;;;;;6328853;27;20228;-55
2022/06/14 01:09:15;;;;;;;2.57;2.40;;;13.20;1.00;;;;;;6326144;28;20721;-56
2022/06/14 01:12:21;;;;;;;5.17;2.50;;;13.20;1.00;;;;;;6329128;28;20232;-54
2022/06/14 01:15:27;;;;;;;3.83;2.63;;;13.10;1.00;;;;;;6334162;28;20269;-60
2022/06/14 01:18:31;;;;;;;5.00;2.70;;;13.10;1.00;;;;;;6330276;28;20505;-55
2022/06/14 01:21:35;;;;;;;4.73;2.90;;;13.10;1.00;;;;;;6332613;28;20234;-54
2022/06/14 01:24:42;;;;;;;3.67;2.70;;;13.00;1.00;;;;;;6333033;28;20250;-55
2022/06/14 01:27:46;;;;;;;2.90;2.70;;;13.00;1.00;;;;;;6320845;28;20223;-54
2022/06/14 01:30:52;;;;;;;3.27;2.70;;;13.00;1.00;;;;;;6330379;28;20235;-56
2022/06/14 01:33:58;;;;;;;4.17;2.87;;;12.90;1.00;;;;;;6332042;28;20224;-54
2022/06/14 01:37:01;;;;;;;2.67;2.57;;;12.90;1.00;;;;;;6334053;28;20452;-55
2022/06/14 01:40:08;;;;;;;3.27;2.73;;;12.80;1.00;;;;;;6321102;28;20358;-55
2022/06/14 01:43:30;;;;;;;3.13;2.87;;;12.80;1.00;;;;;;6323452;28;20481;-56
2022/06/14 01:46:43;;;;;;;4.13;2.40;;;12.70;1.00;;;;;;6326601;28;20472;-56
2022/06/14 01:53:28;;;;;;;3.20;2.87;;;12.70;1.00;;;;;;6331534;28;20311;-54
2022/06/14 01:56:42;;;;;;;3.10;2.80;;;12.60;1.00;;;;;;6326435;28;20732;-55
2022/06/14 01:59:51;;;;;;;5.00;2.47;;;12.50;1.00;;;;;;6329247;28;20378;-55
2022/06/14 02:06:21;;;;;;;4.70;2.77;;;12.50;1.00;;;;;;6332251;28;20228;-54
2022/06/14 02:09:33;;;;;;;5.53;3.40;;;12.50;1.00;;;;;;6312823;28;20323;-56
2022/06/14 02:12:44;;;;;;;3.97;3.03;;;12.40;1.00;;;;;;6332783;28;20610;-55
2022/06/14 02:15:52;;;;;;;4.07;2.87;;;12.40;1.00;;;;;;6330667;28;20278;-56
2022/06/14 02:19:01;;;;;;;4.97;3.27;;;12.30;1.00;;;;;;6328271;28;20358;-55
2022/06/14 02:22:10;;;;;;;4.43;2.87;;;12.30;1.00;;;;;;6333998;28;20257;-56
2022/06/14 02:25:17;;;;;;;4.37;2.97;;;12.30;1.00;;;;;;6325370;28;20243;-56
2022/06/14 02:28:28;;;;;;;5.67;3.63;;;12.30;1.00;;;;;;6328829;28;20518;-54
2022/06/14 02:31:35;;;;;;;3.90;3.03;;;12.20;1.00;;;;;;6320407;28;20647;-56
2022/06/14 02:34:44;;;;;;;4.07;3.27;;;12.20;1.00;;;;;;6322199;28;20262;-56
2022/06/14 02:37:53;;;;;;;5.77;3.07;;;12.20;1.00;;;;;;6318911;28;20282;-55
2022/06/14 02:41:01;;;;;;;3.27;2.97;;;12.20;1.00;;;;;;6316701;28;20262;-55
2022/06/14 02:44:11;;;;;;;3.33;2.77;;;12.20;1.00;;;;;;6324466;28;20285;-55
2022/06/14 02:47:18;;;;;;;3.97;2.80;;;12.20;1.00;;;;;;6315987;28;20367;-56
2022/06/14 02:50:27;;;;;;;4.17;2.90;;;12.20;1.00;;;;;;6317553;28;20323;-53
2022/06/14 02:53:34;;;;;;;3.07;2.87;;;12.20;1.00;;;;;;6320039;28;20328;-57
2022/06/14 02:56:47;;;;;;;3.47;3.00;;;12.20;1.00;;;;;;6318468;28;20235;-56
2022/06/14 02:59:56;;;;;;;3.47;3.17;;;12.10;1.00;;;;;;6304809;28;20239;-54
2022/06/14 03:03:06;;;;;;;4.07;3.10;;;12.10;1.00;;;;;;6322821;28;20273;-56
2022/06/14 03:06:13;;;;;;;4.63;3.00;;;12.10;1.00;;;;;;6316731;28;20727;-55
2022/06/14 03:09:20;;;;;;;4.93;3.00;;;12.10;1.00;;;;;;6315097;28;20336;-56
2022/06/14 03:12:37;;;;;;;3.90;3.33;;;12.10;1.00;;;;;;6322762;28;20225;-56
2022/06/14 03:15:49;;;;;;;3.97;3.03;;;12.10;1.00;;;;;;6320933;28;20236;-55
2022/06/14 03:18:57;;;;;;;8.83;2.93;;;12.10;1.00;;;;;;6312397;28;21656;-56
2022/06/14 03:22:07;;;;;;;3.30;3.00;;;12.10;1.00;;;;;;6322481;28;20232;-55
2022/06/14 03:25:18;;;;;;;3.33;3.03;;;12.20;1.00;;;;;;6314425;28;20233;-55
2022/06/14 03:28:25;;;;;;;3.50;3.30;;;12.20;1.00;;;;;;6316445;28;20256;-54
2022/06/14 03:31:35;;;;;;;6.57;2.93;;;12.20;1.00;;;;;;6309824;28;20440;-55
2022/06/14 03:34:44;;;;;;;5.07;3.07;;;12.30;1.00;;;;;;6309863;28;20568;-54
2022/06/14 03:37:46;;;;;;;8.53;3.50;;;12.30;1.00;;;;;;6309326;28;20281;-56
2022/06/14 03:40:51;;;;;;;7.40;3.40;;;12.30;1.00;;;;;;6314003;28;20319;-55
2022/06/14 03:43:57;;;;;;;5.53;3.47;;;12.30;1.00;;;;;;6326211;28;20381;-54
2022/06/14 03:47:17;;;;;;;5.27;3.27;;;12.30;1.00;;;;;;6324775;28;20502;-55
2022/06/14 03:50:27;;;;;;;4.53;3.67;;;12.30;1.00;;;;;;6321223;28;20233;-54
2022/06/14 03:53:45;;;;;;;5.27;3.57;;;12.30;1.00;;;;;;6317134;28;20224;-55
2022/06/14 03:57:02;;;;;;;4.37;3.33;;;12.30;1.00;;;;;;6326995;28;20312;-54
2022/06/14 04:00:14;;;;;;;6.03;3.53;;;12.30;1.00;;;;;;6324596;28;20286;-54
2022/06/14 04:03:35;;;;;;;9.43;3.40;;;12.30;1.00;;;;;;6329540;28;20243;-56
2022/06/14 04:06:50;;;;;;;8.07;3.93;;;12.40;1.00;;;;;;6313811;28;20717;-55
2022/06/14 04:10:02;;;;;;;7.70;3.63;;;12.40;1.00;;;;;;6317005;28;20350;-56
2022/06/14 04:13:14;;;;;;;7.87;3.07;;;12.40;1.00;;;;;;6333620;28;20232;-54
2022/06/14 04:16:26;;;;;;;9.33;3.73;;;12.40;1.00;;;;;;6327655;28;20307;-55
2022/06/14 04:19:43;;;;;;;4.40;3.47;;;12.50;1.00;;;;;;6323013;28;20327;-56
2022/06/14 04:22:54;;;;;;;3.73;3.10;;;12.50;1.00;;;;;;6329808;28;20453;-54
2022/06/14 04:26:04;;;;;;;6.17;3.53;;;12.50;1.00;;;;;;6315758;28;20793;-55
2022/06/14 04:29:18;;;;;;;4.37;3.10;;;12.50;1.00;;;;;;6325603;28;20385;-54
2022/06/14 04:32:29;;;;;;;5.53;3.47;;;12.50;1.00;;;;;;6325254;28;20311;-54
2022/06/14 04:35:38;;;;;;;8.23;3.97;;;12.60;1.00;;;;;;6313049;28;20260;-55
2022/06/14 04:38:45;;;;;;;5.80;3.60;;;12.60;1.00;;;;;;6311028;27;20339;-54
2022/06/14 04:41:55;;;;;;;5.67;3.80;;;12.60;1.00;;;;;;6321159;28;20301;-55
2022/06/14 04:45:05;;;;;;;5.03;3.47;;;12.70;1.00;;;;;;6322414;28;20233;-56
2022/06/14 04:48:12;;;;;;;5.13;3.40;;;12.80;1.00;;;;;;6315443;28;20278;-56
2022/06/14 04:51:24;;;;;;;9.97;3.40;;;12.90;1.00;;;;;;6331261;28;20232;-54
2022/06/14 04:54:33;;;;;;;4.20;3.33;;;13.00;1.00;;;;;;6323483;27;20315;-56
2022/06/14 04:57:43;;;;;;;12.40;3.73;;;13.20;1.00;;;;;;6324824;28;20350;-55
2022/06/14 05:00:50;;;;;;;8.20;3.73;;;13.30;1.00;;;;;;6316951;28;20319;-55
2022/06/14 05:03:56;;;;;;;9.47;3.70;;;13.30;1.00;;;;;;6315421;28;20740;-56
2022/06/14 05:07:06;;;;;;;6.97;3.87;;;13.40;1.00;;;;;;6321026;28;20252;-55
2022/06/14 05:10:14;;;;;;;5.10;3.30;;;13.40;1.00;;;;;;6326922;28;20740;-56
2022/06/14 05:13:25;;;;;;;4.97;3.30;;;13.70;1.00;;;;;;6317835;28;20613;-55
2022/06/14 05:16:32;;;;;;;4.60;3.33;;;13.80;1.00;;;;;;6327684;27;20247;-56
2022/06/14 05:19:44;;;;;;;6.20;3.80;;;13.90;1.00;;;;;;6315444;28;20239;-54
2022/06/14 05:22:53;;;;;;;8.40;3.47;;;14.00;1.00;;;;;;6317151;27;20311;-55
2022/06/14 05:26:05;;;;;;;7.23;3.33;;;14.00;1.00;;;;;;6319768;28;20255;-56
2022/06/14 05:29:16;;;;;;;6.57;3.57;;;14.30;1.00;;;;;;6326892;28;20243;-55
2022/06/14 05:32:29;;;;;;;5.13;3.47;;;14.50;1.00;;;;;;6304573;28;20283;-54
2022/06/14 05:35:40;;;;;;;7.37;3.80;;;14.60;1.00;;;;;;6325528;28;20584;-54
2022/06/14 05:38:51;;;;;;;6.83;2.90;;;14.70;1.00;;;;;;6322697;28;20271;-56
2022/06/14 05:42:03;;;;;;;8.10;3.30;;;14.80;1.00;;;;;;6320480;27;20602;-56
2022/06/14 05:45:08;;;;;;;8.47;3.03;;;14.80;1.00;;;;;;6315903;27;20228;-55
2022/06/14 05:48:16;;;;;;;10.07;3.40;;;15.00;1.00;;;;;;6330496;28;20242;-56
2022/06/14 05:51:22;;;;;;;6.27;3.23;;;15.00;1.00;;;;;;6329851;28;20228;-55
2022/06/14 05:54:33;;;;;;;5.23;3.10;;;14.90;1.00;;;;;;6324082;28;20314;-55
2022/06/14 05:57:40;;;;;;;7.87;3.53;;;15.00;1.00;;;;;;6323592;28;20400;-56
2022/06/14 06:00:47;;;;;;;11.33;4.20;;;15.10;1.00;;;;;;6326351;28;20337;-56
2022/06/14 06:03:54;;;;;;;5.37;3.50;;;15.20;1.00;;;;;;6331790;28;20228;-56
2022/06/14 06:07:01;;;;;;;6.33;3.30;;;15.30;1.00;;;;;;6327427;28;20224;-55
2022/06/14 06:10:09;;;;;;;10.63;3.60;;;15.50;1.00;;;;;;6328304;28;20543;-54
2022/06/14 06:13:20;;;;;;;6.20;3.47;;;15.80;1.00;;;;;;6332294;28;20704;-55
2022/06/14 06:16:36;;;;;;;9.20;3.47;;;15.80;1.00;;;;;;6331656;28;20467;-56
2022/06/14 06:19:47;;;;;;;3.57;3.27;;;16.10;1.00;;;;;;6318352;28;20224;-56
2022/06/14 06:22:57;;;;;;;4.50;3.10;;;16.70;1.00;;;;;;6323629;28;20315;-56
2022/06/14 06:26:01;;;;;;;8.17;3.10;;;17.30;1.00;;;;;;6329257;28;20331;-55
2022/06/14 06:29:09;;;;;;;6.77;3.57;;;17.70;1.00;;;;;;6331756;28;20274;-54
2022/06/14 06:32:12;;;;;;;7.03;3.23;;;17.50;1.00;;;;;;6322933;28;20264;-55
2022/06/14 06:35:15;;;;;;;5.43;2.87;;;17.30;1.00;;;;;;6331593;28;20550;-54
2022/06/14 06:38:32;;;;;;;4.23;2.90;;;17.20;1.00;;;;;;6327589;28;20236;-54
2022/06/14 06:41:54;;;;;;;10.53;3.57;;;17.20;1.00;;;;;;6326903;28;20236;-55
2022/06/14 06:45:03;;;;;;;7.83;3.03;;;17.00;1.00;;;;;;6327305;28;20713;-55
2022/06/14 06:48:12;;;;;;;6.80;3.23;;;17.20;1.00;;;;;;6328028;28;20288;-60
2022/06/14 06:51:20;;;;;;;7.53;3.03;;;17.50;1.00;;;;;;6328031;28;20236;-55
2022/06/14 06:54:27;;;;;;;3.50;2.60;;;17.50;1.00;;;;;;6330058;28;20708;-55
2022/06/14 06:57:34;;;;;;;4.33;3.00;;;17.30;1.00;;;;;;6326435;28;20362;-55
2022/06/14 07:00:39;;;;;;;5.10;3.17;;;17.30;1.00;;;;;;6331201;28;20381;-55
2022/06/14 07:03:46;;;;;;;3.47;2.90;;;16.90;1.00;;;;;;6331092;28;20232;-55
2022/06/14 07:06:53;;;;;;;8.40;3.17;;;16.90;1.00;;;;;;6327536;28;20239;-55
2022/06/14 07:10:02;;;;;;;7.80;3.13;;;16.60;1.00;;;;;;6329097;28;20637;-55
2022/06/14 07:13:15;;;;;;;5.50;2.97;;;16.70;1.00;;;;;;6332924;28;20720;-56
2022/06/14 07:16:24;;;;;;;9.90;3.13;;;16.70;1.00;;;;;;6323323;28;20651;-55
2022/06/14 07:19:37;;;;;;;12.20;3.37;;;16.60;1.00;;;;;;6325119;28;20812;-55
2022/06/14 07:22:44;;;;;;;10.20;3.73;;;16.60;1.00;;;;;;6323528;28;20234;-56
2022/06/14 07:26:09;;;;;;;7.13;3.30;;;16.70;1.00;;;;;;6326676;28;20842;-55
2022/06/14 07:29:18;;;;;;;7.07;2.90;;;16.90;1.00;;;;;;6327831;28;20405;-56
2022/06/14 07:32:26;;;;;;;4.43;2.90;;;17.00;1.00;;;;;;6328834;28;20244;-56
2022/06/14 07:35:43;;;;;;;6.63;3.23;;;17.10;1.00;;;;;;6331090;28;20706;-54
2022/06/14 07:38:53;;;;;;;6.97;3.13;;;17.00;1.00;;;;;;6329912;28;20235;-56
2022/06/14 07:42:03;;;;;;;4.83;3.00;;;16.90;1.00;;;;;;6300189;28;20454;-53
2022/06/14 07:45:16;;;;;;;10.07;2.83;;;16.90;1.00;;;;;;6333561;28;20265;-55
2022/06/14 07:48:27;;;;;;;9.67;2.93;;;16.70;1.00;;;;;;6335085;28;20280;-55
2022/06/14 07:51:35;;;;;;;4.93;2.60;;;16.60;1.00;;;;;;6334942;27;20266;-55
2022/06/14 07:54:43;;;;;;;6.33;3.17;;;16.60;1.00;;;;;;6334669;28;20234;-55
2022/06/14 07:57:48;;;;;;;5.83;3.10;;;16.70;1.00;;;;;;6333588;28;20330;-54
2022/06/14 08:01:11;;;;;;;6.10;3.13;;;16.90;1.00;;;;;;6336800;28;20592;-56
2022/06/14 08:04:18;;;;;;;7.37;2.70;;;16.90;1.00;;;;;;6334407;27;20719;-56
2022/06/14 08:07:22;;;;;;;5.90;2.87;;;16.90;1.00;;;;;;6333072;28;20414;-56
2022/06/14 08:10:29;;;;;;;5.53;2.87;;;17.00;1.00;;;;;;6335741;28;20382;-58
2022/06/14 08:13:35;;;;;;;3.80;2.80;;;17.20;1.00;;;;;;6331807;28;20722;-58
2022/06/14 08:16:39;;;;;;;2.93;2.63;;;17.40;1.00;;;;;;6333630;28;20720;-56
2022/06/14 08:19:47;;;;;;;5.90;2.63;;;17.20;1.00;;;;;;6332322;28;20364;-56
2022/06/14 08:22:54;;;;;;;7.20;2.70;;;17.40;1.00;;;;;;6325305;28;20224;-55
2022/06/14 08:26:03;;;;;;;6.87;3.07;;;17.20;1.00;;;;;;6327291;27;20325;-57
2022/06/14 08:29:13;;;;;;;7.57;2.80;;;17.30;1.00;;;;;;6330967;28;20232;-56
2022/06/14 08:32:24;;;;;;;6.33;2.80;;;17.40;1.00;;;;;;6335122;28;20591;-55
2022/06/14 08:35:33;;;;;;;3.50;2.50;;;17.50;1.00;;;;;;6335719;27;20331;-56
2022/06/14 08:38:41;;;;;;;5.00;2.73;;;17.60;1.00;;;;;;6325833;28;20744;-55
2022/06/14 08:41:58;;;;;;;7.43;2.90;;;17.80;1.00;;;;;;6334744;28;20293;-55
2022/06/14 08:45:05;;;;;;;4.43;2.63;;;18.10;1.00;;;;;;6335001;28;20763;-54
2022/06/14 08:48:29;;;;;;;6.00;2.50;;;17.90;1.00;;;;;;6333368;27;20239;-54
2022/06/14 08:51:34;;;;;;;3.17;2.50;;;17.80;1.00;;;;;;6334497;28;20469;-56
2022/06/14 08:54:56;;;;;;;8.20;2.70;;;17.80;1.00;;;;;;6332856;27;20315;-56
2022/06/14 08:58:21;;;;;;;2.97;2.43;;;17.80;1.00;;;;;;6333054;28;20599;-55
2022/06/14 09:01:48;;;;;;;3.37;2.40;;;17.90;1.00;;;;;;6334734;28;20697;-55
2022/06/14 09:05:26;;;;;;;3.53;2.37;;;18.20;1.00;;;;;;6333694;28;20264;-54
2022/06/14 09:09:08;;;;;;;5.17;2.50;;;18.40;1.00;;;;;;6332075;28;20309;-54
2022/06/14 09:12:52;;;;;;;2.27;2.07;;;18.40;1.00;;;;;;6318153;27;20232;-55
2022/06/14 09:16:24;;;;;;;4.63;2.53;;;18.40;1.00;;;;;;6303398;28;20303;-52
2022/06/14 09:19:38;;;;;;;3.37;2.37;;;18.50;1.00;;;;;;6329971;28;20243;-58
2022/06/14 09:22:56;;;;;;;2.30;2.10;;;18.80;1.00;;;;;;6322761;27;20347;-56
2022/06/14 09:26:37;;;;;;;2.83;1.93;;;19.20;1.00;;;;;;6307360;28;20751;-55
2022/06/14 09:30:03;;;;;;;2.70;2.27;;;19.50;1.00;;;;;;6304798;28;20709;-55
2022/06/14 09:33:21;;;;;;;2.27;1.90;;;19.80;1.00;;;;;;6328190;28;20277;-55
2022/06/14 09:36:42;;;;;;;2.53;1.90;;;19.80;1.00;;;;;;6326655;28;20721;-56
2022/06/14 09:40:10;;;;;;;3.33;2.10;;;19.80;1.00;;;;;;6317898;28;20240;-55
2022/06/14 09:43:40;;;;;;;2.60;2.40;;;19.70;1.00;;;;;;6323396;28;20262;-55
2022/06/14 09:47:16;;;;;;;2.17;2.07;;;19.40;1.00;;;;;;6323685;28;20410;-53
2022/06/14 09:50:42;;;;;;;4.97;1.90;;;19.30;1.00;;;;;;6316857;28;20227;-56
2022/06/14 09:54:16;;;;;;;2.47;2.13;;;19.00;1.00;;;;;;6317239;28;20381;-54
2022/06/14 09:57:37;;;;;;;5.83;2.50;;;19.00;1.00;;;;;;6318984;28;20392;-54
2022/06/14 10:00:47;;;;;;;6.47;2.40;;;18.80;1.00;;;;;;6316114;28;20233;-54
2022/06/14 10:04:11;;;;;;;4.10;1.97;;;18.70;1.00;;;;;;6332601;28;20774;-55
2022/06/14 10:07:46;;;;;;;2.83;2.30;;;18.20;1.00;;;;;;6328166;28;20733;-55
2022/06/14 10:10:58;;;;;;;3.23;2.60;;;18.10;1.00;;;;;;6308042;28;21184;-56
2022/06/14 10:14:23;;;;;;;8.30;2.47;;;18.10;1.00;;;;;;6316842;28;20374;-56
2022/06/14 10:18:04;;;;;;;3.73;2.27;;;18.30;1.00;;;;;;6312285;28;20232;-53
2022/06/14 10:21:11;;;;;;;2.90;2.33;;;18.50;1.00;;;;;;6289692;28;20728;-56
2022/06/14 10:24:25;;;;;;;2.70;2.07;;;18.60;1.00;;;;;;6332868;27;20314;-55
2022/06/14 10:31:07;;;;;;;3.87;2.43;;;19.00;1.00;;;;;;6322659;28;20232;-55
2022/06/14 10:34:19;;;;;;;5.30;2.60;;;19.10;1.00;;;;;;6324757;28;20232;-55
2022/06/14 10:37:41;;;;;;;6.53;2.33;;;19.30;1.00;;;;;;6328713;27;20917;-55
2022/06/14 10:40:54;;;;;;;2.13;2.03;;;19.50;1.00;;;;;;6328822;27;20627;-57
2022/06/14 10:44:08;;;;;;;5.97;2.27;;;19.60;1.00;;;;;;6326728;28;20232;-55
2022/06/14 10:47:24;;;;;;;3.57;2.30;;;19.60;1.00;;;;;;6325700;27;20236;-54
2022/06/14 10:50:47;;;;;;;2.83;2.27;;;19.40;1.00;;;;;;6331753;28;20557;-57
2022/06/14 10:53:56;;;;;;;2.80;2.40;;;19.30;1.00;;;;;;6329413;27;20677;-54
2022/06/14 10:57:17;;;;;;;3.73;1.90;;;19.20;1.00;;;;;;6326702;27;20315;-54
2022/06/14 11:00:30;;;;;;;4.33;2.53;;;19.30;1.00;;;;;;6329935;28;20232;-55
2022/06/14 11:03:46;;;;;;;4.90;2.50;;;19.30;1.00;;;;;;6327719;27;20240;-55
2022/06/14 11:07:03;;;;;;;2.60;2.40;;;19.40;1.00;;;;;;6321568;27;20814;-54
2022/06/14 11:10:30;;;;;;;4.10;2.57;;;19.40;1.00;;;;;;6319970;28;20224;-56
2022/06/14 11:13:45;;;;;;;2.70;2.27;;;19.40;1.00;;;;;;6325390;28;20232;-54
2022/06/14 11:17:07;;;;;;;6.33;2.67;;;19.20;1.00;;;;;;6321401;28;20326;-54
2022/06/14 11:20:24;;;;;;;3.47;2.20;;;19.20;1.00;;;;;;6299008;28;20247;-56
2022/06/14 11:23:34;;;;;;;3.00;2.63;;;19.30;1.00;;;;;;6325184;28;20318;-55
2022/06/14 11:26:56;;;;;;;4.60;2.60;;;19.50;1.00;;;;;;6313276;28;20236;-55
2022/06/14 11:30:12;;;;;;;3.03;2.27;;;19.50;1.00;;;;;;6316140;28;20237;-55
2022/06/14 11:33:30;;;;;;;2.90;2.03;;;19.60;1.00;;;;;;6298941;28;20346;-55
2022/06/14 11:36:44;;;;;;;4.87;2.57;;;19.50;1.00;;;;;;6310135;28;20252;-54
2022/06/14 11:39:53;;;;;;;6.23;2.67;;;19.40;1.00;;;;;;6319351;28;20352;-56
2022/06/14 11:43:07;;;;;;;6.20;2.17;;;19.40;1.00;;;;;;6323902;28;20700;-55
2022/06/14 11:46:18;;;;;;;4.70;2.50;;;19.80;1.00;;;;;;6327891;28;20318;-55
2022/06/14 11:49:31;;;;;;;5.70;2.10;;;20.10;1.00;;;;;;6331360;28;20236;-55
2022/06/14 11:53:13;;;;;;;2.80;2.50;;;20.00;1.00;;;;;;6317671;28;20463;-54
2022/06/14 11:56:29;;;;;;;2.37;2.27;;;20.00;1.00;;;;;;6312081;28;20389;-55
2022/06/14 12:00:06;;;;;;;2.53;2.20;;;20.00;1.00;;;;;;6325386;28;20380;-54
2022/06/14 12:03:24;;;;;;;3.43;2.20;;;20.10;1.00;;;;;;6330350;28;20773;-55
2022/06/14 12:06:38;;;;;;;3.20;2.50;;;20.30;1.00;;;;;;6329576;28;20269;-55
2022/06/14 12:10:24;;;;;;;2.97;2.10;;;20.00;1.00;;;;;;6326097;28;20335;-56
2022/06/14 12:13:45;;;;;;;5.07;2.20;;;20.00;1.00;;;;;;6304247;28;20237;-55
2022/06/14 12:16:56;;;;;;;5.10;2.40;;;20.10;1.00;;;;;;6323247;28;20224;-56
2022/06/14 12:20:06;;;;;;;4.00;2.53;;;20.20;1.00;;;;;;6318672;28;20251;-56
2022/06/14 12:23:14;;;;;;;3.87;2.27;;;20.20;1.00;;;;;;6326846;28;20604;-56
2022/06/14 12:26:38;;;;;;;6.23;2.67;;;20.30;1.00;;;;;;6329972;28;20661;-54
2022/06/14 12:29:45;;;;;;;4.00;2.00;;;20.50;1.00;;;;;;6324106;28;20244;-55
2022/06/14 12:32:56;;;;;;;3.80;2.60;;;20.70;1.00;;;;;;6330555;27;20234;-52
2022/06/14 12:36:07;;;;;;;2.10;2.00;;;20.80;1.00;;;;;;6330788;28;20734;-54
2022/06/14 12:39:17;;;;;;;2.70;2.00;;;21.00;1.00;;;;;;6331338;27;20323;-54
2022/06/14 12:42:26;;;;;;;2.53;2.23;;;21.10;1.00;;;;;;6335098;28;20827;-55
2022/06/14 12:45:37;;;;;;;4.20;2.27;;;21.00;1.00;;;;;;6332826;28;20393;-54
2022/06/14 12:48:44;;;;;;;3.83;2.10;;;20.80;1.00;;;;;;6327211;27;20550;-56
2022/06/14 12:51:52;;;;;;;2.30;2.00;;;20.70;1.00;;;;;;6333719;28;20425;-55
2022/06/14 12:55:00;;;;;;;4.03;2.20;;;20.80;1.00;;;;;;6332289;27;20239;-57
2022/06/14 12:58:21;;;;;;;5.63;2.20;;;20.80;1.00;;;;;;6332059;28;20399;-56
2022/06/14 13:01:39;;;;;;;3.03;2.07;;;20.90;1.00;;;;;;6333928;27;20225;-55
2022/06/14 13:04:46;;;;;;;4.87;2.10;;;21.00;1.00;;;;;;6333288;28;20405;-55
2022/06/14 13:08:01;;;;;;;2.17;2.07;;;21.20;1.00;;;;;;6332179;28;20255;-56
2022/06/14 13:11:15;;;;;;;2.33;2.20;;;21.20;1.00;;;;;;6327462;28;20264;-55
2022/06/14 13:14:23;;;;;;;2.87;2.20;;;20.80;1.00;;;;;;6327738;28;20235;-57
2022/06/14 13:17:45;;;;;;;3.50;2.03;;;20.70;1.00;;;;;;6332549;28;20233;-55
2022/06/14 13:20:57;;;;;;;2.10;1.90;;;20.60;1.00;;;;;;6321789;28;20746;-58
2022/06/14 13:24:14;;;;;;;2.10;2.00;;;20.50;1.00;;;;;;6331985;28;20243;-55
2022/06/14 13:27:22;;;;;;;3.57;1.70;;;20.50;1.00;;;;;;6331865;28;20369;-54
2022/06/14 13:30:37;;;;;;;3.90;1.90;;;20.90;1.00;;;;;;6331989;28;20744;-57
2022/06/14 13:33:51;;;;;;;4.10;1.90;;;21.00;1.00;;;;;;6325202;28;20236;-58
2022/06/14 13:37:06;;;;;;;2.00;1.90;;;21.10;1.00;;;;;;6332417;28;20277;-55
2022/06/14 13:40:14;;;;;;;3.50;2.10;;;21.40;1.00;;;;;;6328070;28;20732;-55
2022/06/14 13:43:28;;;;;;;3.83;2.33;;;21.50;1.00;;;;;;6332152;28;20240;-57
2022/06/14 13:46:35;;;;;;;2.53;2.33;;;21.40;1.00;;;;;;6330342;28;20820;-56
2022/06/14 13:49:45;;;;;;;2.20;2.10;;;21.40;1.00;;;;;;6332002;28;20247;-55
2022/06/14 13:52:52;;;;;;;3.27;2.27;;;21.50;1.00;;;;;;6330970;28;20224;-55
2022/06/14 13:56:02;;;;;;;2.00;1.90;;;21.70;1.00;;;;;;6332190;28;20309;-54
2022/06/14 13:59:11;;;;;;;3.60;1.93;;;21.80;1.00;;;;;;6331926;28;20228;-55
2022/06/14 14:02:20;;;;;;;2.67;1.97;;;22.10;1.00;;;;;;6332556;28;20370;-55
2022/06/14 14:05:30;;;;;;;3.57;2.17;;;22.20;1.00;;;;;;6331450;28;20753;-55
2022/06/14 14:08:45;;;;;;;3.23;2.40;;;22.00;1.00;;;;;;6322924;28;20242;-56
2022/06/14 14:11:55;;;;;;;2.70;2.03;;;21.50;1.00;;;;;;6324261;28;20236;-56
2022/06/14 14:15:17;;;;;;;2.23;2.13;;;21.40;1.00;;;;;;6303786;28;20220;-55
2022/06/14 14:18:30;;;;;;;5.80;2.43;;;21.40;1.00;;;;;;6330818;28;20320;-55
2022/06/14 14:21:41;;;;;;;3.60;2.37;;;21.60;1.00;;;;;;6323558;28;20808;-53
2022/06/14 14:24:51;;;;;;;3.60;2.37;;;21.60;1.00;;;;;;6328635;28;20908;-55
2022/06/14 14:28:00;;;;;;;1.97;1.83;;;21.80;1.00;;;;;;6322890;28;20607;-55
2022/06/14 14:31:14;;;;;;;2.63;2.43;;;21.70;1.00;;;;;;6330691;28;20377;-55
2022/06/14 14:34:25;;;;;;;3.30;2.00;;;21.90;1.00;;;;;;6330792;28;20248;-55
2022/06/14 14:37:36;;;;;;;3.47;2.00;;;21.80;1.00;;;;;;6324192;28;20356;-56
2022/06/14 14:41:32;;;;;;;3.33;2.40;;;21.70;1.00;;;;;;6328020;28;20312;-57
2022/06/14 14:44:12;;;;;;;3.73;2.13;;;21.80;1.00;;;;;;6331377;28;20338;-56
2022/06/14 14:47:19;;;;;;;5.33;2.17;;;21.90;1.00;;;;;;6322537;28;20252;-55
2022/06/14 14:50:36;;;;;;;2.30;1.80;;;21.80;1.00;;;;;;6330440;28;20232;-56
2022/06/14 14:53:46;;;;;;;3.77;2.10;;;21.70;1.00;;;;;;6324839;28;20247;-56
2022/06/14 14:56:55;;;;;;;3.53;2.20;;;21.80;1.00;;;;;;6331433;28;20803;-56
2022/06/14 15:00:02;;;;;;;2.27;1.70;;;21.80;1.00;;;;;;6331058;28;20311;-55
2022/06/14 15:06:39;;;;;;;2.40;2.20;;;21.50;1.00;;;;;;6323476;28;20231;-55
2022/06/14 15:09:53;;;;;;;3.03;1.93;;;21.40;1.00;;;;;;6327850;28;20228;-55
2022/06/14 15:12:58;;;;;;;3.90;2.30;;;21.40;1.00;;;;;;6330940;28;20741;-57
2022/06/14 15:16:03;;;;;;;2.07;1.90;;;21.50;1.00;;;;;;6330339;27;20235;-57
2022/06/14 15:22:46;;;;;;;2.27;2.17;;;21.50;1.00;;;;;;6321222;28;20539;-57
2022/06/14 15:25:51;;;;;;;1.80;1.70;;;21.50;1.00;;;;;;6326894;28;20943;-56
2022/06/14 15:28:56;;;;;;;1.80;1.70;;;21.60;1.00;;;;;;6330789;28;20238;-58
2022/06/14 15:32:02;;;;;;;5.10;2.10;;;21.60;1.00;;;;;;6327883;28;20234;-56
2022/06/14 15:35:20;;;;;;;6.87;2.30;;;21.70;1.00;;;;;;6328846;28;20239;-55
2022/06/14 15:38:32;;;;;;;4.67;1.80;;;21.60;1.00;;;;;;6326363;28;20607;-55
2022/06/14 15:41:37;;;;;;;2.17;2.07;;;21.40;1.00;;;;;;6325093;28;20234;-57
2022/06/14 15:44:46;;;;;;;4.83;2.10;;;21.40;1.00;;;;;;6327134;28;20354;-56
2022/06/14 15:47:58;;;;;;;2.97;2.03;;;21.20;1.00;;;;;;6329825;28;20235;-55
2022/06/14 15:51:05;;;;;;;3.47;2.00;;;21.10;1.00;;;;;;6330702;28;20317;-56
2022/06/14 15:54:22;;;;;;;2.27;2.10;;;21.00;1.00;;;;;;6325610;28;20293;-48
2022/06/14 15:57:31;;;;;;;4.63;2.30;;;21.30;1.00;;;;;;6322413;28;20320;-56
2022/06/14 16:00:37;;;;;;;3.23;1.80;;;21.60;1.00;;;;;;6322654;28;20235;-55
2022/06/14 16:03:44;;;;;;;3.17;1.97;;;21.80;1.00;;;;;;6328538;28;20312;-56
2022/06/14 16:06:55;;;;;;;3.40;1.80;;;21.90;1.00;;;;;;6333252;27;20224;-57
2022/06/14 16:10:02;;;;;;;2.63;1.83;;;21.90;1.00;;;;;;6331801;27;20236;-55
2022/06/14 16:13:09;;;;;;;1.83;1.73;;;21.80;1.00;;;;;;6324630;28;20230;-54
2022/06/14 16:16:27;;;;;;;2.77;1.70;;;21.70;1.00;;;;;;6335330;28;24642;-56
2022/06/14 16:19:32;;;;;;;2.07;1.90;;;21.70;1.00;;;;;;6334079;27;20280;-56
2022/06/14 16:22:35;;;;;;;1.90;1.80;;;21.70;1.00;;;;;;6325670;28;20231;-57
2022/06/14 16:25:42;;;;;;;3.83;2.40;;;21.80;1.00;;;;;;6334707;28;20242;-56
2022/06/14 16:28:54;;;;;;;2.20;2.10;;;21.80;1.00;;;;;;6338008;27;20349;-55
2022/06/14 16:32:05;;;;;;;2.10;1.60;;;21.50;1.00;;;;;;6334249;28;20243;-57
2022/06/14 16:35:24;;;;;;;2.00;1.90;;;21.20;1.00;;;;;;6332971;28;20239;-56
2022/06/14 16:38:36;;;;;;;4.83;2.10;;;21.10;1.00;;;;;;6334904;27;20239;-56
2022/06/14 16:41:51;;;;;;;3.30;2.10;;;21.00;1.00;;;;;;6333363;27;20254;-56
2022/06/14 16:45:01;;;;;;;2.77;2.10;;;20.90;1.00;;;;;;6329509;27;20224;-56
2022/06/14 16:48:13;;;;;;;2.10;2.00;;;20.80;1.00;;;;;;6309419;28;20228;-56
2022/06/14 16:51:24;;;;;;;2.37;2.20;;;20.70;1.00;;;;;;6309066;27;20833;-57
2022/06/14 16:54:36;;;;;;;2.97;2.10;;;20.60;1.00;;;;;;6311073;27;20539;-57
2022/06/14 16:57:47;;;;;;;2.23;2.07;;;20.60;1.00;;;;;;6304677;27;20745;-55
2022/06/14 17:00:58;;;;;;;3.03;1.87;;;20.50;1.00;;;;;;6302564;27;20607;-56
2022/06/14 17:04:08;;;;;;;5.00;2.30;;;20.50;1.00;;;;;;6304598;27;20556;-57
2022/06/14 17:07:19;;;;;;;2.07;1.97;;;20.50;1.00;;;;;;6295685;27;20282;-56
2022/06/14 17:10:33;;;;;;;1.93;1.83;;;20.50;1.00;;;;;;6300880;27;20432;-57
2022/06/14 17:13:45;;;;;;;2.00;2.00;;;20.40;1.00;;;;;;6303717;27;20240;-57